createdAt,value
2018-12-20T00:01:15.471Z,21.80
2018-12-20T00:03:43.248Z,19.67
2018-12-20T00:06:11.617Z,20.93
2018-12-20T00:08:39.450Z,19.70
2018-12-20T00:11:07.302Z,19.30
2018-12-20T00:13:35.156Z,20.17
2018-12-20T00:16:13.656Z,21.97
2018-12-20T00:18:41.384Z,20.70
2018-12-20T00:21:09.204Z,20.33
2018-12-20T00:23:36.946Z,19.30
2018-12-20T00:26:04.810Z,19.83
2018-12-20T00:28:32.572Z,19.67
2018-12-20T00:31:00.268Z,20.53
2018-12-20T00:33:27.978Z,19.17
2018-12-20T00:35:55.812Z,18.30
2018-12-20T00:38:23.551Z,18.97
2018-12-20T00:40:51.273Z,19.27
2018-12-20T00:43:19.041Z,19.33
2018-12-20T00:45:46.924Z,19.97
2018-12-20T00:48:14.752Z,21.50
2018-12-20T00:50:42.539Z,20.10
2018-12-20T00:53:10.424Z,19.23
2018-12-20T00:55:38.138Z,19.53
2018-12-20T00:58:05.946Z,19.87
2018-12-20T01:00:33.727Z,19.03
2018-12-20T01:03:01.463Z,18.43
2018-12-20T01:05:29.285Z,18.03
2018-12-20T01:07:57.074Z,19.33
2018-12-20T01:10:24.803Z,18.53
2018-12-20T01:12:52.573Z,21.73
2018-12-20T01:15:20.386Z,21.37
2018-12-20T01:17:48.272Z,21.00
2018-12-20T01:20:16.026Z,17.70
2018-12-20T01:22:44.054Z,21.30
2018-12-20T01:25:11.967Z,19.27
2018-12-20T01:27:39.920Z,22.97
2018-12-20T01:30:08.291Z,21.63
2018-12-20T01:32:36.137Z,20.93
2018-12-20T01:35:04.247Z,19.23
2018-12-20T01:37:32.049Z,22.23
2018-12-20T01:39:59.968Z,19.13
2018-12-20T01:42:27.774Z,19.87
2018-12-20T01:44:55.604Z,22.27
2018-12-20T01:47:23.548Z,22.93
2018-12-20T01:49:51.399Z,22.57
2018-12-20T01:52:19.222Z,22.03
2018-12-20T01:54:47.042Z,21.73
2018-12-20T01:57:14.892Z,24.13
2018-12-20T01:59:43.068Z,23.50
2018-12-20T02:02:10.876Z,23.77
2018-12-20T02:04:38.696Z,22.70
2018-12-20T02:07:06.447Z,22.77
2018-12-20T02:09:34.293Z,25.67
2018-12-20T02:12:02.130Z,24.03
2018-12-20T02:14:30.072Z,25.87
2018-12-20T02:16:57.901Z,27.10
2018-12-20T02:19:25.633Z,25.60
2018-12-20T02:21:53.578Z,25.07
2018-12-20T02:24:21.555Z,25.13
2018-12-20T02:26:49.545Z,25.40
2018-12-20T02:29:17.345Z,26.53
2018-12-20T02:31:45.100Z,25.73
2018-12-20T02:34:12.867Z,23.40
2018-12-20T02:36:40.625Z,27.00
2018-12-20T02:39:08.446Z,24.43
2018-12-20T02:41:36.196Z,26.47
2018-12-20T02:44:04.366Z,27.57
2018-12-20T02:46:32.115Z,27.23
2018-12-20T02:49:00.050Z,26.80
2018-12-20T02:51:27.892Z,29.53
2018-12-20T02:53:55.621Z,26.87
2018-12-20T02:56:23.596Z,28.53
2018-12-20T02:58:51.484Z,28.80
2018-12-20T03:01:19.217Z,28.90
2018-12-20T03:03:47.244Z,29.80
2018-12-20T03:06:15.097Z,29.07
2018-12-20T03:08:42.965Z,28.53
2018-12-20T03:11:10.772Z,26.87
2018-12-20T03:13:38.842Z,29.97
2018-12-20T03:16:06.766Z,28.70
2018-12-20T03:18:34.507Z,29.63
2018-12-20T03:21:02.263Z,32.23
2018-12-20T03:23:30.140Z,32.27
2018-12-20T03:25:57.889Z,30.27
2018-12-20T03:28:25.934Z,29.93
2018-12-20T03:30:53.736Z,30.77
2018-12-20T03:33:21.595Z,30.63
2018-12-20T03:35:49.354Z,30.93
2018-12-20T03:38:17.235Z,30.83
2018-12-20T03:40:45.057Z,30.43
2018-12-20T03:43:12.767Z,29.40
2018-12-20T03:45:40.501Z,33.33
2018-12-20T03:48:08.375Z,32.07
2018-12-20T03:50:36.197Z,32.07
2018-12-20T03:53:03.952Z,30.63
2018-12-20T03:55:31.699Z,30.67
2018-12-20T03:57:59.488Z,28.20
2018-12-20T04:00:27.398Z,26.23
2018-12-20T04:02:55.421Z,30.50
2018-12-20T04:05:23.254Z,32.20
2018-12-20T04:07:59.758Z,30.97
2018-12-20T04:10:27.647Z,30.47
2018-12-20T04:12:55.498Z,30.17
2018-12-20T04:15:23.252Z,32.60
2018-12-20T04:17:50.963Z,32.93
2018-12-20T04:20:18.665Z,30.97
2018-12-20T04:22:46.431Z,29.93
2018-12-20T04:25:14.233Z,31.30
2018-12-20T04:27:42.114Z,30.10
2018-12-20T04:30:10.012Z,31.27
2018-12-20T04:32:37.793Z,32.37
2018-12-20T04:35:05.715Z,32.00
2018-12-20T04:37:33.490Z,30.37
2018-12-20T04:40:01.639Z,30.90
2018-12-20T04:42:29.681Z,32.13
2018-12-20T04:44:57.973Z,33.43
2018-12-20T04:47:25.870Z,31.30
2018-12-20T04:49:53.648Z,33.73
2018-12-20T04:52:21.562Z,32.00
2018-12-20T04:54:49.410Z,31.47
2018-12-20T04:57:17.243Z,31.37
2018-12-20T04:59:44.958Z,34.03
2018-12-20T05:02:12.939Z,29.67
2018-12-20T05:04:40.874Z,30.97
2018-12-20T05:07:08.599Z,34.23
2018-12-20T05:09:36.393Z,34.43
2018-12-20T05:12:04.371Z,33.43
2018-12-20T05:14:32.134Z,34.63
2018-12-20T05:17:00.089Z,33.93
2018-12-20T05:19:28.013Z,33.73
2018-12-20T05:21:55.990Z,36.67
2018-12-20T05:24:23.810Z,35.07
2018-12-20T05:26:51.679Z,34.07
2018-12-20T05:29:19.640Z,34.33
2018-12-20T05:31:47.435Z,34.40
2018-12-20T05:34:15.153Z,32.83
2018-12-20T05:36:43.185Z,32.63
2018-12-20T05:39:11.170Z,33.23
2018-12-20T05:41:39.139Z,33.73
2018-12-20T05:44:07.887Z,30.43
2018-12-20T05:46:35.670Z,33.03
2018-12-20T05:49:03.470Z,33.40
2018-12-20T05:51:31.299Z,34.47
2018-12-20T05:53:59.216Z,33.43
2018-12-20T05:56:27.051Z,32.60
2018-12-20T05:58:54.927Z,33.30
2018-12-20T06:01:22.897Z,31.80
2018-12-20T06:03:50.750Z,33.67
2018-12-20T06:06:18.615Z,32.77
2018-12-20T06:08:46.599Z,32.77
2018-12-20T06:11:14.532Z,32.90
2018-12-20T06:13:42.413Z,32.60
2018-12-20T06:16:13.022Z,33.20
2018-12-20T06:18:40.886Z,33.93
2018-12-20T06:21:08.651Z,34.40
2018-12-20T06:23:36.410Z,34.83
2018-12-20T06:26:11.925Z,34.10
2018-12-20T06:28:39.653Z,33.97
2018-12-20T06:31:07.428Z,35.40
2018-12-20T06:33:35.205Z,37.93
2018-12-20T06:36:02.948Z,33.33
2018-12-20T06:38:30.634Z,34.77
2018-12-20T06:40:58.500Z,33.83
2018-12-20T06:43:26.213Z,31.63
2018-12-20T06:45:53.976Z,35.63
2018-12-20T06:48:21.726Z,32.03
2018-12-20T06:50:49.561Z,34.60
2018-12-20T06:53:17.221Z,34.83
2018-12-20T06:55:44.975Z,34.23
2018-12-20T06:58:12.693Z,35.00
2018-12-20T07:00:40.407Z,34.27
2018-12-20T07:03:08.101Z,35.30
2018-12-20T07:05:35.798Z,34.00
2018-12-20T07:08:03.626Z,34.47
2018-12-20T07:10:31.454Z,34.43
2018-12-20T07:12:59.149Z,33.77
2018-12-20T07:15:26.863Z,34.13
2018-12-20T07:17:54.591Z,34.37
2018-12-20T07:20:22.270Z,34.17
2018-12-20T07:22:50.021Z,36.63
2018-12-20T07:25:17.759Z,32.83
2018-12-20T07:27:45.534Z,35.33
2018-12-20T07:30:13.249Z,36.07
2018-12-20T07:32:41.016Z,31.20
2018-12-20T07:35:08.738Z,34.13
2018-12-20T07:37:36.442Z,34.17
2018-12-20T07:40:06.654Z,35.30
2018-12-20T07:42:34.383Z,36.93
2018-12-20T07:45:02.162Z,34.83
2018-12-20T07:47:29.823Z,36.30
2018-12-20T07:49:57.507Z,35.10
2018-12-20T07:52:25.203Z,33.83
2018-12-20T07:54:52.952Z,33.90
2018-12-20T07:57:22.580Z,32.33
2018-12-20T07:59:50.429Z,35.07
2018-12-20T08:02:18.119Z,33.47
2018-12-20T08:04:45.848Z,34.37
2018-12-20T08:07:13.538Z,31.53
2018-12-20T08:09:41.247Z,32.43
2018-12-20T08:12:08.949Z,31.97
2018-12-20T08:14:36.658Z,28.83
2018-12-20T08:17:04.387Z,33.00
2018-12-20T08:19:36.154Z,29.43
2018-12-20T08:22:02.340Z,32.97
2018-12-20T08:24:30.236Z,29.03
2018-12-20T08:26:58.029Z,29.63
2018-12-20T08:29:25.828Z,29.37
2018-12-20T08:31:53.546Z,30.80
2018-12-20T08:34:21.189Z,30.07
2018-12-20T08:36:48.923Z,28.60
2018-12-20T08:39:16.599Z,30.07
2018-12-20T08:41:44.334Z,31.03
2018-12-20T08:44:13.557Z,29.33
2018-12-20T08:46:43.399Z,29.37
2018-12-20T08:49:11.135Z,31.70
2018-12-20T08:51:38.822Z,29.17
2018-12-20T08:54:06.522Z,28.17
2018-12-20T08:56:34.281Z,31.03
2018-12-20T08:59:01.969Z,30.20
2018-12-20T09:01:29.723Z,30.60
2018-12-20T09:03:57.405Z,28.97
2018-12-20T09:06:25.138Z,28.33
2018-12-20T09:08:52.825Z,28.43
2018-12-20T09:11:20.524Z,29.37
2018-12-20T09:13:48.230Z,25.60
2018-12-20T09:16:15.961Z,28.43
2018-12-20T09:18:43.647Z,27.70
2018-12-20T09:21:11.375Z,29.80
2018-12-20T09:23:39.085Z,28.83
2018-12-20T09:26:06.803Z,27.70
2018-12-20T09:28:34.543Z,30.60
2018-12-20T09:31:05.997Z,31.50
2018-12-20T09:33:33.677Z,28.53
2018-12-20T09:36:01.407Z,30.80
2018-12-20T09:38:29.110Z,30.37
2018-12-20T09:40:56.835Z,32.80
2018-12-20T09:43:25.007Z,29.77
2018-12-20T09:45:52.929Z,27.53
2018-12-20T09:48:20.604Z,29.63
2018-12-20T09:50:48.344Z,31.93
2018-12-20T09:53:16.096Z,30.73
2018-12-20T09:55:43.794Z,29.57
2018-12-20T09:58:11.510Z,32.83
2018-12-20T10:00:39.170Z,33.03
2018-12-20T10:03:06.906Z,30.70
2018-12-20T10:05:34.655Z,31.83
2018-12-20T10:08:02.388Z,30.57
2018-12-20T10:10:30.104Z,31.40
2018-12-20T10:12:57.773Z,33.90
2018-12-20T10:15:25.500Z,31.03
2018-12-20T10:17:53.200Z,32.43
2018-12-20T10:20:21.943Z,32.10
2018-12-20T10:22:49.719Z,31.60
2018-12-20T10:25:17.460Z,33.27
2018-12-20T10:27:45.229Z,31.77
2018-12-20T10:30:12.923Z,32.87
2018-12-20T10:32:40.670Z,33.90
2018-12-20T10:35:08.385Z,33.73
2018-12-20T10:37:36.108Z,34.17
2018-12-20T10:40:04.793Z,32.83
2018-12-20T10:42:32.513Z,31.57
2018-12-20T10:45:00.243Z,32.53
2018-12-20T10:47:29.520Z,33.03
2018-12-20T10:49:57.369Z,32.87
2018-12-20T10:52:25.135Z,32.33
2018-12-20T10:54:52.950Z,31.50
2018-12-20T10:57:20.663Z,33.50
2018-12-20T10:59:48.400Z,33.87
2018-12-20T11:02:21.689Z,35.10
2018-12-20T11:04:55.013Z,32.57
2018-12-20T11:07:28.388Z,32.70
2018-12-20T11:10:01.839Z,33.60
2018-12-20T11:12:31.575Z,33.57
2018-12-20T11:14:59.315Z,32.20
2018-12-20T11:17:27.060Z,35.47
2018-12-20T11:19:54.769Z,33.60
2018-12-20T11:22:22.490Z,33.07
2018-12-20T11:24:50.220Z,33.47
2018-12-20T11:27:17.942Z,33.93
2018-12-20T11:29:45.747Z,33.10
2018-12-20T11:32:13.473Z,32.97
2018-12-20T11:34:41.225Z,33.00
2018-12-20T11:37:09.058Z,34.00
2018-12-20T11:39:36.834Z,33.47
2018-12-20T11:42:04.617Z,32.63
2018-12-20T11:44:32.337Z,33.53
2018-12-20T11:47:00.084Z,35.70
2018-12-20T11:49:27.783Z,37.37
2018-12-20T11:51:55.528Z,35.50
2018-12-20T11:54:23.289Z,34.80
2018-12-20T11:56:50.991Z,37.10
2018-12-20T11:59:18.712Z,36.43
2018-12-20T12:01:46.770Z,35.63
2018-12-20T12:04:14.543Z,35.90
2018-12-20T12:06:42.273Z,37.73
2018-12-20T12:09:10.025Z,37.83
2018-12-20T12:11:37.785Z,38.40
2018-12-20T12:14:05.499Z,36.13
2018-12-20T12:16:33.383Z,36.57
2018-12-20T12:19:01.094Z,36.90
2018-12-20T12:21:28.872Z,39.50
2018-12-20T12:23:56.604Z,38.03
2018-12-20T12:26:24.348Z,38.43
2018-12-20T12:28:52.105Z,39.00
2018-12-20T12:31:19.806Z,37.63
2018-12-20T12:33:47.550Z,34.70
2018-12-20T12:36:24.196Z,37.33
2018-12-20T12:38:51.948Z,36.70
2018-12-20T12:41:19.645Z,38.37
2018-12-20T12:43:50.935Z,38.60
2018-12-20T12:46:17.185Z,37.73
2018-12-20T12:48:44.973Z,36.63
2018-12-20T12:51:12.733Z,34.87
2018-12-20T12:53:40.493Z,36.60
2018-12-20T12:56:08.670Z,37.70
2018-12-20T12:58:36.544Z,36.10
2018-12-20T13:01:04.327Z,36.77
2018-12-20T13:03:32.053Z,37.70
2018-12-20T13:05:59.854Z,36.10
2018-12-20T13:08:27.559Z,35.10
2018-12-20T13:10:55.295Z,35.37
2018-12-20T13:13:23.023Z,37.97
2018-12-20T13:15:50.834Z,35.53
2018-12-20T13:18:18.591Z,34.63
2018-12-20T13:20:46.384Z,36.40
2018-12-20T13:23:14.103Z,34.77
2018-12-20T13:25:41.836Z,36.20
2018-12-20T13:28:09.665Z,36.33
2018-12-20T13:30:37.450Z,32.63
2018-12-20T13:33:05.223Z,37.40
2018-12-20T13:35:34.630Z,33.03
2018-12-20T13:38:02.694Z,38.10
2018-12-20T13:40:30.424Z,36.03
2018-12-20T13:42:58.211Z,36.97
2018-12-20T13:45:25.913Z,33.53
2018-12-20T13:47:53.687Z,36.03
2018-12-20T13:50:21.451Z,38.00
2018-12-20T13:52:49.197Z,33.97
2018-12-20T13:55:16.932Z,36.73
2018-12-20T13:57:44.692Z,36.03
2018-12-20T14:00:14.483Z,36.67
2018-12-20T14:02:42.387Z,39.10
2018-12-20T14:05:10.140Z,36.60
2018-12-20T14:07:37.909Z,33.70
2018-12-20T14:10:06.607Z,39.63
2018-12-20T14:12:34.440Z,36.93
2018-12-20T14:15:02.170Z,40.63
2018-12-20T14:17:29.934Z,39.73
2018-12-20T14:19:57.691Z,33.93
2018-12-20T14:22:25.804Z,40.80
2018-12-20T14:24:53.534Z,39.70
2018-12-20T14:27:21.314Z,40.20
2018-12-20T14:29:49.034Z,39.27
2018-12-20T14:32:16.819Z,39.13
2018-12-20T14:34:44.563Z,41.17
2018-12-20T14:37:12.365Z,41.23
2018-12-20T14:39:40.074Z,38.77
2018-12-20T14:42:07.813Z,42.37
2018-12-20T14:44:35.563Z,43.67
2018-12-20T14:47:03.535Z,41.33
2018-12-20T14:49:31.325Z,41.57
2018-12-20T14:51:59.160Z,43.00
2018-12-20T14:54:27.383Z,41.07
2018-12-20T14:56:55.265Z,37.67
2018-12-20T14:59:23.045Z,37.80
2018-12-20T15:01:50.785Z,39.50
2018-12-20T15:04:18.523Z,40.53
2018-12-20T15:06:46.305Z,42.83
2018-12-20T15:09:14.030Z,44.50
2018-12-20T15:11:41.761Z,39.07
2018-12-20T15:14:09.527Z,38.00
2018-12-20T15:16:37.308Z,41.53
2018-12-20T15:19:05.029Z,41.50
2018-12-20T15:21:32.824Z,43.97
2018-12-20T15:24:00.615Z,42.27
2018-12-20T15:26:28.385Z,41.53
2018-12-20T15:28:56.089Z,41.33
2018-12-20T15:31:23.907Z,42.17
2018-12-20T15:33:51.628Z,43.70
2018-12-20T15:36:19.352Z,43.97
2018-12-20T15:38:47.143Z,41.50
2018-12-20T15:41:14.919Z,43.07
2018-12-20T15:43:42.631Z,42.00
2018-12-20T15:46:10.449Z,43.30
2018-12-20T15:48:38.248Z,47.07
2018-12-20T15:51:05.985Z,44.50
2018-12-20T15:53:33.752Z,42.73
2018-12-20T15:56:02.615Z,41.27
2018-12-20T15:58:30.646Z,37.80
2018-12-20T16:00:58.438Z,43.47
2018-12-20T16:03:26.214Z,42.03
2018-12-20T16:05:54.063Z,40.93
2018-12-20T16:08:21.815Z,42.57
2018-12-20T16:10:49.593Z,39.27
2018-12-20T16:13:17.405Z,40.40
2018-12-20T16:15:45.179Z,41.27
2018-12-20T16:18:12.999Z,42.90
2018-12-20T16:20:40.806Z,39.73
2018-12-20T16:23:08.550Z,44.93
2018-12-20T16:25:36.348Z,44.57
2018-12-20T16:28:04.174Z,41.83
2018-12-20T16:30:32.031Z,43.17
2018-12-20T16:32:59.802Z,40.07
2018-12-20T16:35:27.619Z,45.83
2018-12-20T16:37:55.439Z,41.10
2018-12-20T16:40:23.229Z,40.03
2018-12-20T16:42:50.994Z,39.87
2018-12-20T16:45:19.250Z,42.57
2018-12-20T16:47:47.166Z,41.93
2018-12-20T16:50:14.909Z,42.60
2018-12-20T16:52:42.696Z,38.97
2018-12-20T16:55:10.569Z,39.00
2018-12-20T16:57:38.326Z,40.33
2018-12-20T17:00:09.594Z,40.80
2018-12-20T17:02:37.514Z,41.53
2018-12-20T17:05:05.517Z,42.50
2018-12-20T17:07:33.361Z,42.27
2018-12-20T17:10:01.147Z,42.93
2018-12-20T17:12:28.991Z,38.23
2018-12-20T17:14:58.696Z,42.00
2018-12-20T17:17:26.644Z,40.83
2018-12-20T17:19:54.423Z,40.27
2018-12-20T17:22:22.259Z,37.13
2018-12-20T17:24:50.126Z,40.97
2018-12-20T17:27:17.969Z,39.00
2018-12-20T17:29:45.903Z,40.50
2018-12-20T17:32:13.750Z,41.50
2018-12-20T17:34:41.551Z,40.97
2018-12-20T17:37:09.396Z,42.57
2018-12-20T17:39:37.199Z,41.07
2018-12-20T17:42:05.106Z,36.47
2018-12-20T17:44:32.954Z,41.70
2018-12-20T17:47:00.825Z,40.37
2018-12-20T17:49:30.598Z,34.43
2018-12-20T17:51:58.535Z,43.00
2018-12-20T17:54:26.448Z,43.57
2018-12-20T17:56:54.319Z,39.17
2018-12-20T17:59:22.230Z,39.30
2018-12-20T18:01:50.048Z,41.83
2018-12-20T18:04:17.944Z,41.73
2018-12-20T18:06:45.871Z,41.57
2018-12-20T18:09:13.717Z,43.13
2018-12-20T18:11:41.640Z,42.33
2018-12-20T18:14:09.478Z,42.50
2018-12-20T18:16:37.383Z,41.63
2018-12-20T18:19:05.251Z,42.07
2018-12-20T18:21:33.212Z,41.63
2018-12-20T18:24:01.119Z,41.50
2018-12-20T18:26:28.998Z,38.97
2018-12-20T18:28:56.920Z,42.50
2018-12-20T18:31:26.169Z,42.93
2018-12-20T18:33:54.068Z,37.40
2018-12-20T18:36:21.944Z,41.40
2018-12-20T18:38:49.780Z,38.20
2018-12-20T18:41:17.693Z,43.53
2018-12-20T18:43:45.588Z,39.53
2018-12-20T18:46:13.529Z,41.63
2018-12-20T18:48:41.361Z,35.63
2018-12-20T18:51:09.239Z,32.90
2018-12-20T18:53:37.082Z,33.30
2018-12-20T18:56:05.082Z,38.60
2018-12-20T18:58:32.901Z,38.73
2018-12-20T19:01:00.829Z,37.80
2018-12-20T19:03:28.706Z,36.90
2018-12-20T19:05:56.681Z,31.10
2018-12-20T19:08:24.603Z,35.87
2018-12-20T19:10:52.546Z,35.30
2018-12-20T19:13:20.410Z,36.80
2018-12-20T19:15:48.282Z,27.53
2018-12-20T19:18:16.178Z,28.23
2018-12-20T19:20:44.125Z,38.90
2018-12-20T19:23:12.019Z,34.53
2018-12-20T19:25:39.922Z,36.30
2018-12-20T19:28:07.760Z,37.33
2018-12-20T19:30:35.671Z,35.67
2018-12-20T19:33:03.573Z,34.80
2018-12-20T19:35:31.554Z,34.23
2018-12-20T19:37:59.433Z,32.97
2018-12-20T19:40:27.354Z,35.53
2018-12-20T19:42:55.303Z,37.20
2018-12-20T19:45:23.249Z,37.90
2018-12-20T19:47:51.153Z,35.93
2018-12-20T19:50:19.106Z,37.97
2018-12-20T19:52:47.118Z,33.90
2018-12-20T19:55:15.037Z,37.87
2018-12-20T19:57:42.919Z,32.27
2018-12-20T20:00:12.381Z,37.60
2018-12-20T20:02:40.318Z,30.43
2018-12-20T20:05:08.363Z,33.13
2018-12-20T20:07:36.262Z,31.03
2018-12-20T20:10:07.492Z,32.27
2018-12-20T20:12:35.511Z,34.70
2018-12-20T20:15:03.726Z,34.47
2018-12-20T20:17:31.725Z,34.93
2018-12-20T20:20:00.087Z,34.77
2018-12-20T20:22:28.204Z,32.63
2018-12-20T20:24:56.142Z,34.37
2018-12-20T20:27:24.106Z,33.40
2018-12-20T20:29:52.080Z,34.23
2018-12-20T20:32:20.030Z,30.70
2018-12-20T20:34:48.002Z,34.60
2018-12-20T20:37:16.824Z,29.03
2018-12-20T20:39:44.781Z,34.07
2018-12-20T20:42:12.765Z,28.23
2018-12-20T20:44:40.772Z,32.97
2018-12-20T20:47:08.667Z,32.33
2018-12-20T20:49:36.653Z,32.07
2018-12-20T20:52:04.631Z,29.00
2018-12-20T20:54:32.503Z,29.00
2018-12-20T20:57:00.470Z,31.97
2018-12-20T20:59:28.385Z,31.97
2018-12-20T21:01:56.284Z,29.43
2018-12-20T21:04:24.306Z,28.17
2018-12-20T21:06:52.209Z,25.90
2018-12-20T21:09:20.110Z,25.00
2018-12-20T21:11:47.935Z,29.23
2018-12-20T21:14:15.824Z,29.80
2018-12-20T21:16:43.654Z,27.27
2018-12-20T21:19:11.570Z,26.20
2018-12-20T21:21:39.526Z,27.70
2018-12-20T21:24:07.372Z,27.67
2018-12-20T21:26:35.223Z,27.50
2018-12-20T21:29:03.118Z,25.40
2018-12-20T21:31:31.006Z,24.27
2018-12-20T21:33:58.911Z,23.93
2018-12-20T21:36:26.891Z,24.07
2018-12-20T21:38:54.795Z,25.60
2018-12-20T21:41:22.654Z,22.83
2018-12-20T21:43:50.550Z,24.60
2018-12-20T21:46:18.449Z,23.53
2018-12-20T21:48:46.296Z,24.67
2018-12-20T21:51:14.146Z,24.93
2018-12-20T21:53:42.025Z,25.37
2018-12-20T21:56:09.872Z,24.47
2018-12-20T21:58:37.690Z,26.33
2018-12-20T22:01:05.578Z,25.80
2018-12-20T22:03:33.449Z,27.37
2018-12-20T22:06:01.307Z,27.50
2018-12-20T22:08:29.107Z,28.17
2018-12-20T22:10:56.905Z,29.17
2018-12-20T22:13:24.665Z,28.37
2018-12-20T22:15:52.412Z,27.17
2018-12-20T22:18:20.130Z,27.67
2018-12-20T22:20:47.967Z,29.63
2018-12-20T22:23:15.727Z,24.60
2018-12-20T22:25:43.448Z,26.37
2018-12-20T22:28:11.225Z,27.60
2018-12-20T22:30:40.355Z,28.07
2018-12-20T22:33:08.104Z,26.47
2018-12-20T22:35:35.810Z,28.23
2018-12-20T22:38:03.612Z,28.90
2018-12-20T22:40:33.562Z,26.97
2018-12-20T22:43:01.302Z,28.73
2018-12-20T22:45:29.044Z,27.23
2018-12-20T22:47:56.810Z,24.73
2018-12-20T22:50:24.563Z,25.40
2018-12-20T22:52:52.338Z,26.63
2018-12-20T22:55:20.092Z,26.90
2018-12-20T22:57:47.784Z,24.07
2018-12-20T23:00:16.413Z,24.33
2018-12-20T23:02:44.118Z,19.97
2018-12-20T23:05:11.897Z,23.57
2018-12-20T23:07:39.624Z,21.50
2018-12-20T23:10:08.233Z,25.80
2018-12-20T23:12:36.096Z,23.30
2018-12-20T23:15:04.345Z,22.17
2018-12-20T23:17:32.090Z,22.63
2018-12-20T23:19:59.854Z,24.03
2018-12-20T23:22:27.599Z,20.83
2018-12-20T23:24:55.374Z,22.23
2018-12-20T23:27:23.149Z,20.80
2018-12-20T23:29:50.864Z,24.07
2018-12-20T23:32:18.578Z,23.07
2018-12-20T23:34:46.308Z,22.97
2018-12-20T23:37:14.011Z,18.70
2018-12-20T23:39:41.828Z,22.77
2018-12-20T23:42:09.519Z,21.83
2018-12-20T23:44:37.254Z,22.60
2018-12-20T23:47:04.957Z,19.20
2018-12-20T23:49:32.657Z,20.27
2018-12-20T23:52:00.382Z,19.43
2018-12-20T23:54:28.061Z,19.47
2018-12-20T23:56:57.780Z,15.97
2018-12-20T23:59:25.534Z,17.57
